NOZ416 ENGM-ENAL
Flight info
| Callsign | NOZ416 |
|---|---|
| Flight time | N/A |
| Altitude | 34000 |
| Route | EVTOG DCT UTRUF DCT UFGUG DCT OBITI |
| Aircraft | B738/M-SDE2E3GHIJ1LRWXY/LB1 |
Departure
| Time | 2026-05-06 19:30 |
|---|---|
| Airport | Oslo-Gardermoen International Airport (ENGM) |
Arrival
| Time | N/A |
|---|---|
| Airport | Ålesund Airport (ENAL) |
| Time | Latitude | Longitude | Altitude | Speed | Heading |
|---|---|---|---|---|---|
| 2026-05-06 19:07 | 60.19473 | 11.09344 | 676 ft | 0 kts | 17° |
| 2026-05-06 19:18 | 60.19463 | 11.09338 | 676 ft | 2 kts | 17° |
| 2026-05-06 19:18 | 60.19449 | 11.09329 | 676 ft | 2 kts | 20° |
| 2026-05-06 19:18 | 60.19436 | 11.09316 | 676 ft | 2 kts | 35° |
| 2026-05-06 19:19 | 60.19424 | 11.09296 | 676 ft | 2 kts | 47° |
| 2026-05-06 19:19 | 60.19414 | 11.09273 | 676 ft | 2 kts | 58° |
| 2026-05-06 19:19 | 60.19408 | 11.09246 | 676 ft | 2 kts | 70° |
| 2026-05-06 19:19 | 60.19404 | 11.09217 | 676 ft | 2 kts | 82° |
| 2026-05-06 19:20 | 60.19403 | 11.09187 | 676 ft | 2 kts | 94° |
| 2026-05-06 19:20 | 60.19405 | 11.09160 | 676 ft | 0 kts | 104° |
| 2026-05-06 19:20 | 60.19407 | 11.09148 | 676 ft | 0 kts | 106° |
| 2026-05-06 19:23 | 60.19406 | 11.09154 | 676 ft | 2 kts | 106° |
| 2026-05-06 19:23 | 60.19407 | 11.09206 | 676 ft | 4 kts | 59° |
| 2026-05-06 19:23 | 60.19434 | 11.09205 | 676 ft | 5 kts | 316° |
| 2026-05-06 19:23 | 60.19452 | 11.09121 | 676 ft | 9 kts | 285° |
| 2026-05-06 19:24 | 60.19474 | 11.08969 | 676 ft | 12 kts | 285° |
| 2026-05-06 19:24 | 60.19497 | 11.08804 | 675 ft | 12 kts | 285° |
| 2026-05-06 19:24 | 60.19521 | 11.08635 | 674 ft | 12 kts | 286° |
| 2026-05-06 19:24 | 60.19551 | 11.08552 | 674 ft | 8 kts | 348° |
| 2026-05-06 19:25 | 60.19626 | 11.08586 | 674 ft | 13 kts | 16° |
| 2026-05-06 19:25 | 60.19725 | 11.08643 | 676 ft | 16 kts | 16° |
| 2026-05-06 19:25 | 60.19848 | 11.08713 | 676 ft | 20 kts | 15° |
| 2026-05-06 19:25 | 60.19996 | 11.08798 | 677 ft | 22 kts | 15° |
| 2026-05-06 19:26 | 60.20147 | 11.08886 | 678 ft | 23 kts | 15° |
| 2026-05-06 19:26 | 60.20299 | 11.08974 | 679 ft | 22 kts | 16° |
| 2026-05-06 19:26 | 60.20444 | 11.09058 | 680 ft | 21 kts | 16° |
| 2026-05-06 19:26 | 60.20573 | 11.09131 | 680 ft | 11 kts | 16° |
| 2026-05-06 19:27 | 60.20632 | 11.09126 | 680 ft | 8 kts | 313° |
| 2026-05-06 19:27 | 60.20653 | 11.09019 | 680 ft | 8 kts | 285° |
| 2026-05-06 19:27 | 60.20672 | 11.08890 | 679 ft | 10 kts | 286° |
| 2026-05-06 19:27 | 60.20694 | 11.08731 | 678 ft | 12 kts | 286° |
| 2026-05-06 19:28 | 60.20684 | 11.08633 | 678 ft | 7 kts | 204° |
| 2026-05-06 19:28 | 60.20661 | 11.08620 | 678 ft | 0 kts | 195° |
| 2026-05-06 19:29 | 60.20653 | 11.08615 | 678 ft | 6 kts | 195° |
| 2026-05-06 19:30 | 60.20466 | 11.08508 | 677 ft | 61 kts | 197° |
| 2026-05-06 19:30 | 60.19847 | 11.08151 | 673 ft | 123 kts | 195° |
| 2026-05-06 19:30 | 60.18854 | 11.07588 | 729 ft | 166 kts | 197° |
| 2026-05-06 19:30 | 60.17757 | 11.06954 | 1341 ft | 167 kts | 198° |
| 2026-05-06 19:31 | 60.16682 | 11.06092 | 1971 ft | 169 kts | 212° |
| 2026-05-06 19:31 | 60.15791 | 11.04574 | 2552 ft | 171 kts | 235° |
| 2026-05-06 19:31 | 60.14885 | 10.99933 | 3448 ft | 195 kts | 255° |
| 2026-05-06 19:32 | 60.14483 | 10.97213 | 3870 ft | 213 kts | 254° |
| 2026-05-06 19:32 | 60.14088 | 10.94277 | 4354 ft | 228 kts | 261° |
| 2026-05-06 19:32 | 60.13917 | 10.91024 | 4920 ft | 241 kts | 268° |
| 2026-05-06 19:32 | 60.13847 | 10.87592 | 5489 ft | 254 kts | 268° |
| 2026-05-06 19:33 | 60.13772 | 10.84036 | 6191 ft | 261 kts | 268° |
| 2026-05-06 19:33 | 60.13670 | 10.80354 | 6995 ft | 264 kts | 266° |
| 2026-05-06 19:33 | 60.13544 | 10.76702 | 7806 ft | 267 kts | 266° |
| 2026-05-06 19:33 | 60.13414 | 10.73045 | 8651 ft | 267 kts | 266° |
| 2026-05-06 19:34 | 60.13368 | 10.69313 | 9443 ft | 269 kts | 274° |
| 2026-05-06 19:34 | 60.13592 | 10.65599 | 10209 ft | 271 kts | 275° |
| 2026-05-06 19:34 | 60.14075 | 10.61907 | 10675 ft | 287 kts | 297° |
| 2026-05-06 19:34 | 60.15396 | 10.58716 | 11169 ft | 304 kts | 314° |
| 2026-05-06 19:35 | 60.17006 | 10.55886 | 11638 ft | 318 kts | 317° |
| 2026-05-06 19:35 | 60.18747 | 10.53046 | 12379 ft | 323 kts | 318° |
| 2026-05-06 19:35 | 60.20486 | 10.50261 | 13158 ft | 326 kts | 317° |
| 2026-05-06 19:35 | 60.22255 | 10.47418 | 14007 ft | 328 kts | 317° |
| 2026-05-06 19:36 | 60.24040 | 10.44524 | 14876 ft | 329 kts | 316° |
| 2026-05-06 19:36 | 60.25795 | 10.41655 | 15661 ft | 333 kts | 316° |
| 2026-05-06 19:36 | 60.27594 | 10.38701 | 16455 ft | 336 kts | 316° |
| 2026-05-06 19:36 | 60.29404 | 10.35723 | 17289 ft | 337 kts | 315° |
| 2026-05-06 19:37 | 60.31211 | 10.32743 | 18048 ft | 339 kts | 314° |
| 2026-05-06 19:37 | 60.33034 | 10.29734 | 18833 ft | 340 kts | 313° |
| 2026-05-06 19:37 | 60.34850 | 10.26729 | 19572 ft | 344 kts | 313° |
| 2026-05-06 19:37 | 60.36091 | 10.24673 | 20060 ft | 345 kts | 313° |
| 2026-05-06 19:38 | 60.38552 | 10.20593 | 20954 ft | 350 kts | 313° |
| 2026-05-06 19:38 | 60.40436 | 10.17464 | 21622 ft | 353 kts | 313° |
| 2026-05-06 19:38 | 60.42320 | 10.14333 | 22305 ft | 354 kts | 312° |
| 2026-05-06 19:38 | 60.44230 | 10.11152 | 22913 ft | 357 kts | 312° |
| 2026-05-06 19:39 | 60.46149 | 10.07949 | 23597 ft | 359 kts | 312° |
| 2026-05-06 19:39 | 60.48080 | 10.04721 | 24144 ft | 363 kts | 311° |
| 2026-05-06 19:39 | 60.50023 | 10.01465 | 24687 ft | 366 kts | 311° |
| 2026-05-06 19:39 | 60.51992 | 9.98160 | 25245 ft | 368 kts | 311° |
| 2026-05-06 19:40 | 60.53982 | 9.94817 | 25738 ft | 371 kts | 311° |
| 2026-05-06 19:40 | 60.55970 | 9.91463 | 26127 ft | 377 kts | 311° |
| 2026-05-06 19:40 | 60.57978 | 9.88077 | 26647 ft | 378 kts | 311° |
| 2026-05-06 19:40 | 60.60016 | 9.84632 | 27026 ft | 382 kts | 311° |
| 2026-05-06 19:41 | 60.62075 | 9.81151 | 27517 ft | 383 kts | 311° |
| 2026-05-06 19:41 | 60.64125 | 9.77679 | 27837 ft | 389 kts | 311° |
| 2026-05-06 19:41 | 60.66225 | 9.74116 | 28311 ft | 390 kts | 312° |
| 2026-05-06 19:41 | 60.68311 | 9.70571 | 28617 ft | 395 kts | 311° |
| 2026-05-06 19:42 | 60.70403 | 9.67008 | 29057 ft | 397 kts | 312° |
| 2026-05-06 19:42 | 60.72520 | 9.63399 | 29403 ft | 399 kts | 312° |
| 2026-05-06 19:42 | 60.74663 | 9.59741 | 29771 ft | 400 kts | 312° |
| 2026-05-06 19:42 | 60.76777 | 9.56133 | 30200 ft | 399 kts | 312° |
| 2026-05-06 19:43 | 60.78901 | 9.52502 | 30608 ft | 398 kts | 312° |
| 2026-05-06 19:43 | 60.81002 | 9.48895 | 30888 ft | 400 kts | 312° |
| 2026-05-06 19:43 | 60.83116 | 9.45255 | 31156 ft | 400 kts | 312° |
| 2026-05-06 19:43 | 60.85275 | 9.41531 | 31423 ft | 402 kts | 313° |
| 2026-05-06 19:44 | 60.87378 | 9.37897 | 31671 ft | 403 kts | 313° |
| 2026-05-06 19:44 | 60.89489 | 9.34247 | 31975 ft | 403 kts | 312° |
| 2026-05-06 19:44 | 60.91615 | 9.30564 | 32174 ft | 405 kts | 312° |
| 2026-05-06 19:44 | 60.93756 | 9.26844 | 32451 ft | 406 kts | 313° |
| 2026-05-06 19:45 | 60.95900 | 9.23118 | 32712 ft | 406 kts | 313° |
| 2026-05-06 19:45 | 60.98053 | 9.19368 | 32998 ft | 407 kts | 313° |
| 2026-05-06 19:45 | 61.00219 | 9.15589 | 33268 ft | 407 kts | 313° |
| 2026-05-06 19:45 | 61.02385 | 9.11802 | 33522 ft | 408 kts | 313° |
| 2026-05-06 19:46 | 61.04542 | 9.08023 | 33794 ft | 409 kts | 314° |
| 2026-05-06 19:46 | 61.06710 | 9.04215 | 33860 ft | 412 kts | 314° |
| 2026-05-06 19:46 | 61.10829 | 8.96966 | 33877 ft | 409 kts | 314° |
| 2026-05-06 19:47 | 61.15136 | 8.89365 | 33883 ft | 408 kts | 314° |
| 2026-05-06 19:47 | 61.19434 | 8.81742 | 33875 ft | 409 kts | 314° |
| 2026-05-06 19:48 | 61.23745 | 8.74070 | 33889 ft | 409 kts | 314° |
| 2026-05-06 19:48 | 61.28078 | 8.66330 | 33857 ft | 409 kts | 314° |
| 2026-05-06 19:49 | 61.32361 | 8.58652 | 33835 ft | 409 kts | 314° |
| 2026-05-06 19:49 | 61.36670 | 8.50895 | 33807 ft | 409 kts | 314° |
| 2026-05-06 19:50 | 61.40984 | 8.43101 | 33804 ft | 409 kts | 314° |
| 2026-05-06 19:50 | 61.45281 | 8.35307 | 33639 ft | 412 kts | 314° |
| 2026-05-06 19:51 | 61.47425 | 8.31407 | 33429 ft | 409 kts | 313° |
| 2026-05-06 19:51 | 61.49541 | 8.27557 | 33244 ft | 406 kts | 313° |
| 2026-05-06 19:51 | 61.51649 | 8.23713 | 33036 ft | 407 kts | 313° |
| 2026-05-06 19:51 | 61.53782 | 8.19811 | 32750 ft | 409 kts | 313° |
| 2026-05-06 19:52 | 61.55915 | 8.15900 | 32458 ft | 409 kts | 314° |
| 2026-05-06 19:52 | 61.58047 | 8.11987 | 32082 ft | 408 kts | 313° |
| 2026-05-06 19:52 | 61.60166 | 8.08090 | 31706 ft | 405 kts | 313° |
| 2026-05-06 19:52 | 61.62294 | 8.04172 | 31343 ft | 404 kts | 314° |
| 2026-05-06 19:53 | 61.64393 | 8.00297 | 30985 ft | 405 kts | 314° |
| 2026-05-06 19:53 | 61.66528 | 7.96348 | 30531 ft | 406 kts | 314° |
| 2026-05-06 19:53 | 61.68639 | 7.92463 | 30023 ft | 406 kts | 314° |
| 2026-05-06 19:53 | 61.70760 | 7.88569 | 29495 ft | 405 kts | 314° |
| 2026-05-06 19:54 | 61.72875 | 7.84682 | 28993 ft | 404 kts | 314° |
| 2026-05-06 19:54 | 61.74967 | 7.80832 | 28471 ft | 403 kts | 314° |
| 2026-05-06 19:54 | 61.77083 | 7.76929 | 27936 ft | 402 kts | 314° |
| 2026-05-06 19:54 | 61.79148 | 7.73112 | 27446 ft | 399 kts | 314° |
| 2026-05-06 19:55 | 61.81227 | 7.69264 | 27016 ft | 395 kts | 315° |
| 2026-05-06 19:55 | 61.83288 | 7.65440 | 26581 ft | 390 kts | 315° |
| 2026-05-06 19:55 | 61.85300 | 7.61699 | 26143 ft | 386 kts | 315° |
| 2026-05-06 19:55 | 61.87324 | 7.57929 | 25685 ft | 383 kts | 315° |
| 2026-05-06 19:56 | 61.89310 | 7.54220 | 25215 ft | 379 kts | 315° |
| 2026-05-06 19:56 | 61.91274 | 7.50542 | 24704 ft | 376 kts | 315° |
| 2026-05-06 19:56 | 61.93235 | 7.46865 | 24166 ft | 372 kts | 315° |
| 2026-05-06 19:56 | 61.95150 | 7.43265 | 23636 ft | 369 kts | 315° |
| 2026-05-06 19:57 | 61.97063 | 7.39666 | 23122 ft | 367 kts | 316° |
| 2026-05-06 19:57 | 61.98998 | 7.36181 | 22587 ft | 365 kts | 319° |
| 2026-05-06 19:57 | 62.00750 | 7.33431 | 22162 ft | 363 kts | 323° |
| 2026-05-06 19:57 | 62.03009 | 7.30631 | 21665 ft | 361 kts | 329° |
| 2026-05-06 19:58 | 62.05025 | 7.28515 | 21236 ft | 359 kts | 332° |
| 2026-05-06 19:58 | 62.07355 | 7.26256 | 20744 ft | 356 kts | 333° |
| 2026-05-06 19:58 | 62.09616 | 7.24132 | 20254 ft | 353 kts | 334° |
| 2026-05-06 19:58 | 62.11131 | 7.22713 | 19927 ft | 351 kts | 334° |
| 2026-05-06 19:59 | 62.13283 | 7.20685 | 19435 ft | 346 kts | 334° |
| 2026-05-06 19:59 | 62.14626 | 7.19410 | 19088 ft | 343 kts | 334° |
| 2026-05-06 19:59 | 62.16711 | 7.17419 | 18536 ft | 338 kts | 334° |